createdAt,value
2023-11-29T00:00:54.656Z,2.20
2023-11-29T00:03:21.959Z,2.80
2023-11-29T00:05:49.424Z,2.10
2023-11-29T00:08:16.866Z,2.65
2023-11-29T00:10:44.572Z,2.45
2023-11-29T00:13:12.618Z,1.98
2023-11-29T00:15:40.446Z,2.08
2023-11-29T00:18:07.922Z,2.20
2023-11-29T00:20:35.433Z,2.50
2023-11-29T00:23:02.709Z,2.58
2023-11-29T00:25:30.156Z,2.38
2023-11-29T00:27:57.471Z,2.97
2023-11-29T00:30:24.915Z,2.17
2023-11-29T00:32:52.315Z,2.38
2023-11-29T00:35:19.802Z,2.67
2023-11-29T00:37:49.140Z,2.30
2023-11-29T00:40:16.791Z,2.35
2023-11-29T00:42:44.358Z,2.00
2023-11-29T00:45:12.555Z,2.67
2023-11-29T00:47:41.814Z,2.33
2023-11-29T00:50:10.100Z,2.50
2023-11-29T00:52:37.978Z,2.60
2023-11-29T00:55:06.899Z,2.53
2023-11-29T00:57:34.170Z,2.80
2023-11-29T01:00:01.469Z,2.65
2023-11-29T01:02:28.876Z,3.03
2023-11-29T01:04:57.109Z,2.85
2023-11-29T01:07:24.815Z,2.80
2023-11-29T01:09:52.333Z,3.30
2023-11-29T01:12:21.099Z,2.50
2023-11-29T01:14:49.190Z,3.28
2023-11-29T01:17:16.569Z,2.65
2023-11-29T01:19:46.306Z,3.40
2023-11-29T01:22:13.571Z,4.07
2023-11-29T01:24:41.153Z,2.92
2023-11-29T01:27:09.580Z,2.88
2023-11-29T01:29:36.955Z,3.70
2023-11-29T01:32:04.761Z,3.33
2023-11-29T01:34:32.258Z,3.50
2023-11-29T01:36:59.582Z,3.20
2023-11-29T01:39:27.743Z,2.80
2023-11-29T01:41:55.063Z,3.30
2023-11-29T01:44:22.443Z,3.40
2023-11-29T01:46:49.925Z,3.42
2023-11-29T01:49:20.434Z,3.45
2023-11-29T01:51:47.925Z,3.60
2023-11-29T01:54:15.186Z,3.72
2023-11-29T01:56:42.642Z,3.40
2023-11-29T01:59:10.082Z,3.58
2023-11-29T02:01:37.480Z,3.15
2023-11-29T02:04:05.705Z,3.72
2023-11-29T02:06:33.100Z,3.60
2023-11-29T02:09:00.369Z,3.37
2023-11-29T02:11:28.464Z,3.08
2023-11-29T02:13:55.712Z,3.17
2023-11-29T02:16:23.128Z,3.65
2023-11-29T02:18:50.485Z,3.53
2023-11-29T02:21:17.960Z,3.30
2023-11-29T02:23:53.087Z,2.90
2023-11-29T02:26:20.423Z,3.50
2023-11-29T02:28:47.749Z,3.67
2023-11-29T02:31:15.193Z,3.50
2023-11-29T02:33:42.495Z,3.90
2023-11-29T02:36:09.918Z,3.80
2023-11-29T02:38:37.318Z,3.28
2023-11-29T02:41:04.749Z,3.70
2023-11-29T02:43:32.090Z,3.72
2023-11-29T02:45:59.473Z,3.60
2023-11-29T02:48:26.789Z,3.97
2023-11-29T02:50:54.228Z,4.20
2023-11-29T02:53:21.589Z,3.88
2023-11-29T02:55:50.080Z,3.38
2023-11-29T02:58:17.693Z,4.47
2023-11-29T03:00:45.775Z,4.30
2023-11-29T03:03:13.138Z,4.15
2023-11-29T03:05:40.725Z,4.20
2023-11-29T03:08:09.357Z,3.85
2023-11-29T03:10:36.859Z,4.30
2023-11-29T03:13:04.297Z,4.00
2023-11-29T03:15:31.633Z,4.35
2023-11-29T03:17:58.977Z,3.70
2023-11-29T03:20:26.622Z,3.83
2023-11-29T03:22:54.110Z,3.80
2023-11-29T03:25:21.793Z,3.80
2023-11-29T03:27:49.052Z,3.75
2023-11-29T03:30:16.707Z,3.63
2023-11-29T03:32:44.466Z,3.63
2023-11-29T03:35:11.929Z,4.47
2023-11-29T03:37:39.389Z,4.25
2023-11-29T03:40:07.717Z,4.25
2023-11-29T03:42:35.785Z,4.15
2023-11-29T03:45:04.514Z,4.30
2023-11-29T03:47:31.861Z,3.83
2023-11-29T03:49:59.314Z,4.13
2023-11-29T03:52:26.659Z,3.78
2023-11-29T03:54:54.808Z,4.53
2023-11-29T03:57:22.168Z,4.18
2023-11-29T03:59:51.101Z,4.00
2023-11-29T04:02:18.639Z,4.78
2023-11-29T04:04:46.114Z,4.78
2023-11-29T04:07:14.008Z,4.57
2023-11-29T04:09:43.439Z,4.00
2023-11-29T04:12:11.919Z,4.63
2023-11-29T04:14:40.879Z,5.40
2023-11-29T04:17:08.474Z,3.65
2023-11-29T04:19:36.542Z,4.63
2023-11-29T04:22:04.186Z,4.75
2023-11-29T04:24:32.001Z,4.60
2023-11-29T04:26:59.487Z,5.25
2023-11-29T04:29:28.700Z,4.10
2023-11-29T04:31:56.194Z,4.82
2023-11-29T04:34:33.227Z,5.00
2023-11-29T04:37:04.325Z,4.53
2023-11-29T04:39:32.086Z,4.55
2023-11-29T04:41:59.436Z,4.68
2023-11-29T04:44:28.749Z,4.50
2023-11-29T04:46:56.238Z,4.65
2023-11-29T04:49:23.642Z,4.37
2023-11-29T04:51:51.137Z,4.75
2023-11-29T04:54:19.380Z,4.55
2023-11-29T04:56:47.068Z,4.45
2023-11-29T04:59:15.093Z,4.53
2023-11-29T05:01:42.623Z,4.07
2023-11-29T05:04:10.429Z,4.07
2023-11-29T05:06:38.375Z,5.28
2023-11-29T05:09:07.550Z,5.10
2023-11-29T05:11:35.858Z,6.10
2023-11-29T05:14:04.262Z,4.90
2023-11-29T05:16:32.293Z,5.10
2023-11-29T05:18:59.937Z,4.53
2023-11-29T05:21:28.830Z,4.55
2023-11-29T05:23:56.409Z,4.15
2023-11-29T05:26:24.423Z,5.10
2023-11-29T05:28:52.068Z,3.35
2023-11-29T05:31:19.777Z,5.68
2023-11-29T05:33:47.310Z,4.75
2023-11-29T05:36:15.612Z,4.30
2023-11-29T05:38:43.878Z,3.87
2023-11-29T05:41:14.527Z,5.38
2023-11-29T05:43:42.366Z,4.40
2023-11-29T05:46:10.011Z,2.08
2023-11-29T05:48:37.567Z,2.97
2023-11-29T05:51:06.063Z,4.40
2023-11-29T05:53:33.611Z,5.45
2023-11-29T05:56:01.250Z,4.95
2023-11-29T05:58:29.243Z,5.00
2023-11-29T06:00:56.887Z,4.63
2023-11-29T06:03:27.366Z,4.93
2023-11-29T06:05:55.640Z,5.18
2023-11-29T06:08:23.099Z,4.93
2023-11-29T06:10:50.600Z,5.38
2023-11-29T06:13:21.968Z,4.85
2023-11-29T06:15:50.887Z,5.27
2023-11-29T06:18:20.350Z,5.68
2023-11-29T06:20:48.678Z,5.10
2023-11-29T06:23:16.483Z,4.82
2023-11-29T06:25:52.067Z,4.30
2023-11-29T06:28:26.006Z,5.13
2023-11-29T06:30:55.757Z,4.75
2023-11-29T06:33:23.757Z,4.90
2023-11-29T06:35:52.308Z,5.15
2023-11-29T06:38:21.941Z,5.45
2023-11-29T06:40:54.470Z,5.93
2023-11-29T06:43:26.329Z,5.25
2023-11-29T06:45:54.390Z,5.38
2023-11-29T06:48:22.959Z,5.47
2023-11-29T06:50:50.775Z,5.82
2023-11-29T06:53:19.744Z,5.80
2023-11-29T06:55:51.311Z,4.75
2023-11-29T06:58:23.617Z,5.10
2023-11-29T07:00:54.822Z,5.22
2023-11-29T07:03:23.076Z,5.25
2023-11-29T07:05:52.462Z,4.93
2023-11-29T07:08:27.078Z,5.10
2023-11-29T07:10:59.661Z,4.55
2023-11-29T07:13:29.804Z,4.63
2023-11-29T07:15:58.590Z,4.68
2023-11-29T07:18:28.577Z,5.20
2023-11-29T07:20:59.930Z,5.32
2023-11-29T07:23:31.620Z,4.50
2023-11-29T07:26:05.257Z,5.20
2023-11-29T07:28:33.491Z,6.32
2023-11-29T07:31:08.444Z,6.03
2023-11-29T07:33:37.227Z,5.63
2023-11-29T07:36:12.099Z,6.45
2023-11-29T07:38:43.795Z,5.88
2023-11-29T07:41:12.505Z,6.10
2023-11-29T07:43:41.675Z,6.27
2023-11-29T07:46:15.217Z,5.78
2023-11-29T07:48:43.671Z,6.15
2023-11-29T07:51:11.690Z,5.88
2023-11-29T07:53:39.614Z,6.30
2023-11-29T07:56:08.881Z,5.40
2023-11-29T07:58:37.431Z,5.40
2023-11-29T08:01:07.038Z,5.57
2023-11-29T08:03:37.096Z,6.25
2023-11-29T08:06:05.022Z,5.78
2023-11-29T08:08:32.545Z,5.40
2023-11-29T08:11:02.377Z,6.43
2023-11-29T08:13:30.309Z,5.68
2023-11-29T08:15:58.814Z,5.43
2023-11-29T08:18:32.711Z,5.60
2023-11-29T08:21:00.872Z,5.93
2023-11-29T08:23:36.814Z,5.25
2023-11-29T08:26:06.950Z,5.72
2023-11-29T08:28:34.877Z,4.43
2023-11-29T08:31:02.497Z,3.35
2023-11-29T08:33:35.008Z,5.10
2023-11-29T08:36:05.062Z,5.65
2023-11-29T08:38:33.612Z,6.28
2023-11-29T08:41:01.970Z,6.10
2023-11-29T08:43:29.852Z,5.78
2023-11-29T08:45:58.047Z,6.43
2023-11-29T08:48:26.093Z,4.63
2023-11-29T08:50:55.075Z,5.50
2023-11-29T08:53:32.930Z,4.10
2023-11-29T08:56:18.318Z,5.90
2023-11-29T09:02:12.238Z,6.13
2023-11-29T09:04:41.918Z,6.47
2023-11-29T09:07:12.510Z,4.75
2023-11-29T09:09:46.964Z,5.90
2023-11-29T09:12:19.627Z,4.17
2023-11-29T09:14:47.552Z,5.93
2023-11-29T09:17:18.768Z,7.13
2023-11-29T09:19:47.008Z,6.65
2023-11-29T09:22:15.178Z,6.50
2023-11-29T09:24:42.928Z,8.63
2023-11-29T09:27:13.209Z,7.30
2023-11-29T09:29:43.685Z,6.60
2023-11-29T09:32:11.412Z,6.70
2023-11-29T09:34:38.960Z,6.38
2023-11-29T09:37:06.449Z,7.30
2023-11-29T09:39:33.929Z,5.90
2023-11-29T09:42:07.324Z,7.40
2023-11-29T09:44:37.696Z,7.22
2023-11-29T09:47:07.292Z,6.13
2023-11-29T09:49:36.319Z,5.73
2023-11-29T09:52:05.249Z,5.50
2023-11-29T09:54:35.549Z,5.63
2023-11-29T09:57:04.727Z,5.82
2023-11-29T09:59:34.355Z,6.65
2023-11-29T10:02:07.955Z,6.17
2023-11-29T10:04:41.673Z,6.07
2023-11-29T10:07:11.242Z,6.50
2023-11-29T10:09:39.945Z,7.55
2023-11-29T10:12:14.319Z,6.38
2023-11-29T10:14:43.254Z,6.03
2023-11-29T10:17:15.300Z,5.80
2023-11-29T10:19:44.734Z,5.72
2023-11-29T10:22:17.845Z,5.93
2023-11-29T10:24:46.524Z,4.78
2023-11-29T10:27:15.275Z,5.60
2023-11-29T10:29:43.336Z,7.35
2023-11-29T10:32:14.473Z,7.78
2023-11-29T10:34:44.033Z,7.63
2023-11-29T10:37:12.477Z,5.93
2023-11-29T10:39:40.101Z,6.13
2023-11-29T10:42:12.088Z,5.35
2023-11-29T10:44:40.424Z,5.53
2023-11-29T10:47:21.198Z,6.80
2023-11-29T10:49:50.934Z,6.90
2023-11-29T10:52:21.308Z,8.73
2023-11-29T10:54:49.525Z,8.05
2023-11-29T10:57:24.268Z,6.10
2023-11-29T10:59:57.680Z,6.28
2023-11-29T11:02:29.988Z,5.60
2023-11-29T11:05:12.460Z,6.00
2023-11-29T11:07:52.310Z,4.65
2023-11-29T11:10:42.775Z,4.63
2023-11-29T11:13:38.045Z,5.72
2023-11-29T11:16:29.288Z,5.50
2023-11-29T11:19:11.421Z,6.17
2023-11-29T11:21:44.723Z,5.28
2023-11-29T11:24:13.963Z,4.93
2023-11-29T11:30:29.761Z,6.32
2023-11-29T11:32:59.556Z,6.33
2023-11-29T11:35:36.115Z,6.05
2023-11-29T11:38:09.177Z,6.32
2023-11-29T11:40:39.615Z,6.38
2023-11-29T11:43:08.442Z,4.30
2023-11-29T11:45:38.571Z,6.37
2023-11-29T11:48:07.470Z,5.90
2023-11-29T11:50:35.314Z,7.05
2023-11-29T11:53:04.956Z,5.95
2023-11-29T11:55:35.518Z,6.03
2023-11-29T11:58:21.572Z,6.07
2023-11-29T12:00:55.225Z,6.55
2023-11-29T12:03:24.160Z,5.63
2023-11-29T12:05:56.118Z,5.43
2023-11-29T12:08:24.415Z,5.45
2023-11-29T12:10:52.313Z,5.57
2023-11-29T12:13:22.861Z,6.88
2023-11-29T12:15:50.501Z,6.05
2023-11-29T12:18:19.436Z,5.82
2023-11-29T12:20:49.632Z,6.40
2023-11-29T12:23:31.455Z,4.90
2023-11-29T12:25:59.512Z,4.70
2023-11-29T12:28:29.964Z,5.15
2023-11-29T12:31:00.203Z,4.95
2023-11-29T12:33:35.765Z,3.13
2023-11-29T12:36:05.292Z,5.20
2023-11-29T12:38:34.658Z,5.30
2023-11-29T12:41:02.749Z,3.88
2023-11-29T12:43:30.949Z,4.70
2023-11-29T12:46:00.775Z,4.68
2023-11-29T12:48:30.823Z,3.40
2023-11-29T12:51:29.039Z,5.30
2023-11-29T12:54:17.024Z,4.57
2023-11-29T12:56:49.944Z,3.95
2023-11-29T12:59:21.182Z,3.08
2023-11-29T13:01:50.003Z,4.73
2023-11-29T13:04:17.618Z,4.63
2023-11-29T13:06:45.060Z,5.47
2023-11-29T13:09:13.446Z,5.55
2023-11-29T13:11:41.403Z,6.72
2023-11-29T13:14:08.842Z,6.57
2023-11-29T13:16:37.829Z,6.90
2023-11-29T13:19:05.253Z,5.80
2023-11-29T13:21:34.162Z,6.45
2023-11-29T13:24:02.291Z,6.93
2023-11-29T13:26:29.794Z,6.67
2023-11-29T13:28:59.081Z,6.28
2023-11-29T13:31:27.153Z,7.22
2023-11-29T13:33:56.800Z,7.20
2023-11-29T13:36:25.485Z,7.30
2023-11-29T13:38:53.156Z,6.23
2023-11-29T13:41:20.650Z,5.82
2023-11-29T13:43:56.779Z,7.13
2023-11-29T13:46:27.580Z,5.47
2023-11-29T13:48:55.255Z,4.80
2023-11-29T13:51:22.872Z,8.13
2023-11-29T13:53:50.542Z,5.30
2023-11-29T13:56:18.301Z,4.78
2023-11-29T13:58:47.190Z,5.35
2023-11-29T14:01:14.782Z,5.20
2023-11-29T14:03:44.558Z,5.83
2023-11-29T14:06:13.540Z,4.38
2023-11-29T14:08:43.251Z,4.90
2023-11-29T14:11:11.204Z,4.97
2023-11-29T14:13:38.887Z,4.93
2023-11-29T14:16:06.789Z,4.37
2023-11-29T14:18:34.502Z,4.68
2023-11-29T14:21:02.364Z,4.78
2023-11-29T14:23:29.845Z,5.25
2023-11-29T14:25:57.477Z,4.57
2023-11-29T14:28:24.893Z,5.10
2023-11-29T14:30:52.606Z,5.72
2023-11-29T14:33:20.078Z,6.10
2023-11-29T14:35:48.049Z,6.47
2023-11-29T14:38:15.721Z,3.75
2023-11-29T14:40:43.110Z,6.00
2023-11-29T14:43:10.476Z,7.47
2023-11-29T14:45:38.132Z,6.93
2023-11-29T14:48:05.741Z,7.57
2023-11-29T14:50:33.517Z,8.00
2023-11-29T14:53:01.164Z,6.57
2023-11-29T14:55:28.918Z,10.38
2023-11-29T14:57:56.305Z,9.45
2023-11-29T15:00:23.902Z,9.05
2023-11-29T15:02:51.532Z,8.75
2023-11-29T15:05:19.146Z,8.73
2023-11-29T15:07:46.559Z,9.40
2023-11-29T15:10:13.934Z,8.90
2023-11-29T15:12:41.519Z,10.55
2023-11-29T15:15:09.521Z,10.57
2023-11-29T15:17:37.296Z,10.53
2023-11-29T15:20:06.453Z,10.15
2023-11-29T15:22:35.098Z,10.45
2023-11-29T15:25:11.154Z,10.98
2023-11-29T15:27:45.003Z,11.02
2023-11-29T15:30:13.143Z,10.23
2023-11-29T15:32:40.628Z,9.40
2023-11-29T15:35:09.239Z,10.48
2023-11-29T15:37:37.241Z,11.10
2023-11-29T15:40:05.717Z,10.63
2023-11-29T15:42:33.169Z,9.67
2023-11-29T15:45:00.652Z,9.02
2023-11-29T15:47:28.202Z,9.52
2023-11-29T15:49:55.631Z,9.57
2023-11-29T15:52:23.197Z,9.07
2023-11-29T15:54:50.628Z,7.43
2023-11-29T15:57:20.182Z,8.07
2023-11-29T15:59:50.564Z,7.93
2023-11-29T16:02:17.979Z,7.65
2023-11-29T16:04:45.643Z,8.27
2023-11-29T16:07:13.223Z,8.75
2023-11-29T16:09:40.931Z,9.65
2023-11-29T16:12:08.834Z,18.10
2023-11-29T16:14:36.164Z,19.27
2023-11-29T16:17:04.541Z,17.73
2023-11-29T16:19:32.580Z,13.75
2023-11-29T16:22:00.045Z,11.73
2023-11-29T16:24:27.463Z,13.48
2023-11-29T16:26:55.640Z,12.98
2023-11-29T16:29:23.063Z,15.17
2023-11-29T16:31:50.482Z,15.73
2023-11-29T16:34:17.930Z,16.60
2023-11-29T16:36:46.421Z,15.07
2023-11-29T16:39:13.846Z,15.75
2023-11-29T16:41:41.862Z,17.83
2023-11-29T16:44:09.326Z,18.55
2023-11-29T16:46:36.877Z,17.70
2023-11-29T16:49:05.449Z,18.02
2023-11-29T16:51:33.234Z,19.33
2023-11-29T16:54:00.727Z,18.07
2023-11-29T16:56:28.274Z,18.33
2023-11-29T16:58:55.784Z,19.50
2023-11-29T17:01:24.036Z,19.55
2023-11-29T17:03:53.984Z,26.27
2023-11-29T17:06:22.164Z,23.23
2023-11-29T17:08:50.938Z,21.98
2023-11-29T17:11:18.487Z,19.92
2023-11-29T17:13:45.880Z,19.30
2023-11-29T17:16:13.381Z,20.20
2023-11-29T17:18:40.795Z,22.50
2023-11-29T17:21:08.837Z,23.80
2023-11-29T17:23:36.206Z,18.95
2023-11-29T17:26:04.496Z,21.77
2023-11-29T17:28:31.879Z,22.85
2023-11-29T17:30:59.581Z,22.00
2023-11-29T17:33:27.311Z,21.15
2023-11-29T17:35:55.802Z,21.85
2023-11-29T17:38:23.170Z,21.25
2023-11-29T17:40:51.813Z,23.35
2023-11-29T17:43:19.135Z,22.30
2023-11-29T17:45:51.739Z,23.25
2023-11-29T17:48:20.024Z,24.45
2023-11-29T17:50:47.353Z,20.70
2023-11-29T17:53:14.769Z,22.30
2023-11-29T17:55:42.384Z,22.40
2023-11-29T17:58:09.949Z,22.00
2023-11-29T18:00:37.326Z,21.45
2023-11-29T18:03:05.466Z,21.08
2023-11-29T18:05:32.802Z,24.73
2023-11-29T18:08:00.247Z,22.57
2023-11-29T18:10:27.739Z,19.33
2023-11-29T18:12:55.176Z,20.25
2023-11-29T18:15:22.534Z,21.92
2023-11-29T18:17:50.304Z,31.75
2023-11-29T18:20:17.710Z,31.90
2023-11-29T18:22:45.403Z,30.05
2023-11-29T18:25:12.829Z,26.73
2023-11-29T18:27:40.255Z,27.35
2023-11-29T18:30:08.372Z,28.05
2023-11-29T18:32:35.987Z,28.57
2023-11-29T18:35:03.757Z,35.80
2023-11-29T18:37:31.140Z,34.45
2023-11-29T18:39:58.695Z,28.75
2023-11-29T18:42:26.146Z,27.67
2023-11-29T18:44:53.514Z,30.80
2023-11-29T18:47:20.969Z,26.63
2023-11-29T18:49:48.373Z,23.58
2023-11-29T18:52:15.718Z,22.92
2023-11-29T18:54:43.250Z,17.65
2023-11-29T18:57:11.125Z,19.53
2023-11-29T18:59:42.624Z,20.85
2023-11-29T19:02:10.984Z,24.10
2023-11-29T19:04:38.694Z,18.58
2023-11-29T19:07:06.273Z,17.73
2023-11-29T19:09:33.652Z,17.83
2023-11-29T19:12:02.456Z,16.88
2023-11-29T19:14:29.784Z,15.30
2023-11-29T19:16:58.979Z,17.48
2023-11-29T19:19:26.337Z,18.52
2023-11-29T19:21:53.750Z,18.60
2023-11-29T19:24:21.433Z,19.73
2023-11-29T19:26:48.921Z,18.10
2023-11-29T19:29:16.297Z,16.95
2023-11-29T19:31:47.375Z,17.30
2023-11-29T19:34:15.586Z,16.60
2023-11-29T19:36:42.979Z,14.50
2023-11-29T19:39:10.528Z,13.13
2023-11-29T19:41:37.878Z,11.85
2023-11-29T19:44:05.308Z,12.05
2023-11-29T19:46:32.754Z,12.13
2023-11-29T19:49:00.974Z,13.50
2023-11-29T19:51:28.317Z,15.80
2023-11-29T19:53:55.682Z,19.02
2023-11-29T19:56:23.029Z,18.00
2023-11-29T19:58:50.439Z,16.43
2023-11-29T20:01:18.036Z,16.30
2023-11-29T20:03:45.503Z,14.75
2023-11-29T20:06:22.074Z,13.27
2023-11-29T20:08:55.833Z,10.30
2023-11-29T20:11:23.312Z,12.30
2023-11-29T20:13:50.691Z,10.93
2023-11-29T20:16:18.072Z,11.55
2023-11-29T20:18:45.922Z,10.88
2023-11-29T20:21:13.473Z,9.80
2023-11-29T20:23:41.698Z,8.90
2023-11-29T20:26:09.008Z,9.57
2023-11-29T20:28:36.366Z,9.73
2023-11-29T20:31:06.684Z,8.77
2023-11-29T20:33:34.119Z,9.57
2023-11-29T20:36:01.621Z,9.53
2023-11-29T20:38:29.081Z,10.63
2023-11-29T20:40:56.526Z,12.60
2023-11-29T20:43:23.964Z,13.00
2023-11-29T20:45:51.361Z,11.85
2023-11-29T20:48:18.750Z,11.40
2023-11-29T20:50:46.186Z,12.50
2023-11-29T20:53:18.649Z,11.65
2023-11-29T20:55:51.006Z,12.15
2023-11-29T20:58:22.159Z,12.75
2023-11-29T21:00:50.280Z,12.03
2023-11-29T21:03:17.933Z,11.13
2023-11-29T21:05:45.592Z,10.13
2023-11-29T21:08:12.930Z,10.52
2023-11-29T21:10:40.320Z,10.38
2023-11-29T21:13:09.614Z,10.73
2023-11-29T21:15:38.873Z,9.75
2023-11-29T21:18:06.367Z,9.98
2023-11-29T21:20:34.810Z,10.30
2023-11-29T21:23:02.200Z,11.90
2023-11-29T21:25:29.628Z,10.30
2023-11-29T21:27:56.994Z,11.15
2023-11-29T21:30:24.393Z,10.07
2023-11-29T21:32:52.044Z,10.60
2023-11-29T21:35:19.549Z,9.48
2023-11-29T21:37:46.854Z,11.40
2023-11-29T21:40:14.486Z,11.32
2023-11-29T21:42:41.862Z,11.38
2023-11-29T21:45:09.944Z,10.07
2023-11-29T21:47:38.131Z,10.77
2023-11-29T21:50:07.227Z,11.03
2023-11-29T21:52:34.577Z,11.95
2023-11-29T21:55:01.916Z,12.65
2023-11-29T21:57:29.269Z,11.63
2023-11-29T21:59:56.782Z,11.50
2023-11-29T22:02:24.283Z,11.13
2023-11-29T22:04:51.714Z,11.60
2023-11-29T22:07:19.057Z,10.25
2023-11-29T22:09:46.409Z,10.52
2023-11-29T22:12:13.746Z,11.05
2023-11-29T22:14:41.526Z,11.60
2023-11-29T22:17:08.859Z,11.32
2023-11-29T22:19:37.182Z,10.50
2023-11-29T22:22:04.796Z,10.85
2023-11-29T22:24:32.667Z,9.63
2023-11-29T22:27:00.391Z,8.83
2023-11-29T22:29:28.456Z,9.10
2023-11-29T22:31:55.846Z,10.55
2023-11-29T22:34:23.320Z,10.50
2023-11-29T22:36:50.715Z,10.98
2023-11-29T22:39:18.242Z,10.13
2023-11-29T22:41:45.590Z,9.57
2023-11-29T22:44:13.073Z,9.98
2023-11-29T22:46:41.121Z,8.63
2023-11-29T22:49:09.006Z,8.63
2023-11-29T22:51:37.322Z,7.50
2023-11-29T22:54:05.665Z,7.63
2023-11-29T22:56:36.967Z,8.60
2023-11-29T22:59:07.832Z,8.70
2023-11-29T23:01:35.536Z,9.40
2023-11-29T23:04:03.895Z,10.03
2023-11-29T23:06:32.734Z,9.77
2023-11-29T23:09:00.825Z,10.50
2023-11-29T23:11:28.259Z,10.73
2023-11-29T23:13:55.840Z,11.20
2023-11-29T23:16:23.386Z,9.23
2023-11-29T23:18:50.850Z,9.38
2023-11-29T23:21:18.418Z,9.05
2023-11-29T23:23:46.910Z,9.75
2023-11-29T23:26:14.375Z,11.15
2023-11-29T23:28:41.727Z,11.10
2023-11-29T23:31:09.366Z,11.52
2023-11-29T23:33:36.989Z,9.18
2023-11-29T23:36:07.950Z,10.00
2023-11-29T23:38:35.544Z,8.23
2023-11-29T23:41:02.869Z,9.47
2023-11-29T23:43:30.360Z,8.77
2023-11-29T23:45:57.744Z,9.38
2023-11-29T23:48:25.247Z,8.52
2023-11-29T23:50:52.621Z,8.05
2023-11-29T23:53:20.032Z,9.03
2023-11-29T23:55:47.359Z,7.43
2023-11-29T23:58:14.768Z,6.90
